Camden, Delaware
Current Conditions -  °F | °C
As of 12:58 PM on Sunday 21 Dec 2014 (Local Time) from KDOV Reporting Station
Clear Clear  
Wind Chill: 34°   Ceiling: Unl
Heat Index: 40°   Visibility: 10mi
Dew Point: 25°   Wind: 8mph
Humidity: 55%   Direction: 320°NW
Pressure: 30.29"   Gusts: NA
Location:  39.0852°N, 75.6325°W
Report Text: KDOV 211758Z AUTO 32007KT 10SM CLR 04/M04 A3029 RMK AO2 SLP261 T00431040 10043 21002 57016
Loading
Personal Weather Stations






























Interactive Weather Map New forecast layout! Learn more

10-Day Weather Forecast

Advertisements
Track Severe Weather on mobile